createdAt,value
2017-11-15T00:02:17.525Z,84.70
2017-11-15T00:04:45.001Z,84.70
2017-11-15T00:07:12.438Z,84.90
2017-11-15T00:09:39.889Z,85.10
2017-11-15T00:12:07.325Z,85.30
2017-11-15T00:14:35.537Z,85.10
2017-11-15T00:17:02.974Z,85.00
2017-11-15T00:19:30.473Z,85.10
2017-11-15T00:21:58.023Z,85.10
2017-11-15T00:24:25.446Z,85.50
2017-11-15T00:26:52.894Z,85.70
2017-11-15T00:29:21.109Z,85.80
2017-11-15T00:31:48.571Z,85.70
2017-11-15T00:34:16.049Z,85.60
2017-11-15T00:36:43.588Z,85.60
2017-11-15T00:39:11.149Z,85.60
2017-11-15T00:41:38.782Z,85.80
2017-11-15T00:44:06.216Z,85.40
2017-11-15T00:46:34.426Z,85.40
2017-11-15T00:49:01.871Z,85.40
2017-11-15T00:51:29.373Z,85.50
2017-11-15T00:53:58.335Z,85.80
2017-11-15T00:56:25.750Z,85.80
2017-11-15T00:58:54.090Z,86.00
2017-11-15T01:01:21.550Z,86.00
2017-11-15T01:03:48.994Z,86.10
2017-11-15T01:06:16.439Z,86.30
2017-11-15T01:08:43.862Z,86.40
2017-11-15T01:11:12.082Z,86.80
2017-11-15T01:13:39.545Z,86.80
2017-11-15T01:16:07.001Z,86.90
2017-11-15T01:18:34.430Z,86.80
2017-11-15T01:21:01.887Z,86.90
2017-11-15T01:23:29.381Z,86.70
2017-11-15T01:25:56.818Z,86.60
2017-11-15T01:28:24.257Z,86.70
2017-11-15T01:30:51.691Z,86.50
2017-11-15T01:33:19.889Z,86.50
2017-11-15T01:35:47.357Z,86.50
2017-11-15T01:38:14.803Z,86.60
2017-11-15T01:40:43.017Z,87.10
2017-11-15T01:43:10.448Z,87.00
2017-11-15T01:45:37.932Z,87.20
2017-11-15T01:48:05.373Z,87.50
2017-11-15T01:50:32.849Z,88.00
2017-11-15T01:53:00.405Z,88.70
2017-11-15T01:55:27.829Z,89.10
2017-11-15T01:57:55.259Z,89.10
2017-11-15T02:00:35.275Z,89.60
2017-11-15T02:03:02.702Z,89.40
2017-11-15T02:05:30.193Z,89.60
2017-11-15T02:07:57.617Z,89.70
2017-11-15T02:10:25.058Z,89.60
2017-11-15T02:12:52.562Z,89.50
2017-11-15T02:15:20.018Z,89.70
2017-11-15T02:17:47.470Z,89.70
2017-11-15T02:20:14.893Z,89.70
2017-11-15T02:22:42.389Z,89.40
2017-11-15T02:25:09.824Z,89.30
2017-11-15T02:27:37.250Z,89.60
2017-11-15T02:30:05.460Z,89.90
2017-11-15T02:32:32.920Z,89.90
2017-11-15T02:35:00.363Z,90.00
2017-11-15T02:37:27.787Z,90.00
2017-11-15T02:39:56.743Z,90.10
2017-11-15T02:42:24.185Z,90.10
2017-11-15T02:44:51.660Z,90.30
2017-11-15T02:47:19.107Z,90.20
2017-11-15T02:49:46.543Z,90.10
2017-11-15T02:52:13.974Z,90.20
2017-11-15T02:54:42.183Z,90.10
2017-11-15T02:57:09.662Z,90.00
2017-11-15T02:59:37.115Z,90.30
2017-11-15T03:02:04.538Z,90.30
2017-11-15T03:04:32.042Z,90.30
2017-11-15T03:06:59.490Z,90.20
2017-11-15T03:09:26.918Z,90.00
2017-11-15T03:11:54.369Z,90.00
2017-11-15T03:14:21.801Z,90.00
2017-11-15T03:16:49.999Z,89.90
2017-11-15T03:19:17.438Z,89.80
2017-11-15T03:21:45.634Z,90.10
2017-11-15T03:24:13.123Z,90.10
2017-11-15T03:26:40.591Z,90.20
2017-11-15T03:29:08.043Z,90.30
2017-11-15T03:31:35.499Z,90.40
2017-11-15T03:34:02.943Z,90.50
2017-11-15T03:36:30.409Z,90.60
2017-11-15T03:38:57.837Z,90.80
2017-11-15T03:41:25.525Z,90.90
2017-11-15T03:43:52.974Z,91.00
2017-11-15T03:46:20.449Z,91.00
2017-11-15T03:48:48.010Z,91.00
2017-11-15T03:51:15.470Z,90.80
2017-11-15T03:53:42.905Z,90.70
2017-11-15T03:56:10.381Z,90.50
2017-11-15T03:58:37.918Z,90.20
2017-11-15T04:01:05.366Z,90.00
2017-11-15T04:03:32.849Z,90.10
2017-11-15T04:06:00.282Z,90.10
2017-11-15T04:08:27.782Z,90.20
2017-11-15T04:10:55.222Z,90.00
2017-11-15T04:13:22.650Z,90.10
2017-11-15T04:15:50.073Z,90.30
2017-11-15T04:18:18.270Z,90.90
2017-11-15T04:20:46.479Z,91.00
2017-11-15T04:23:14.030Z,91.00
2017-11-15T04:25:41.501Z,91.10
2017-11-15T04:28:08.965Z,91.10
2017-11-15T04:30:36.392Z,91.00
2017-11-15T04:33:03.826Z,91.00
2017-11-15T04:35:31.259Z,91.00
2017-11-15T04:37:58.703Z,90.90
2017-11-15T04:40:26.138Z,91.00
2017-11-15T04:42:53.606Z,90.80
2017-11-15T04:45:21.055Z,90.90
2017-11-15T04:47:48.492Z,90.90
2017-11-15T04:50:15.933Z,90.80
2017-11-15T04:52:43.446Z,90.90
2017-11-15T04:55:10.865Z,91.00
2017-11-15T04:57:38.305Z,91.00
2017-11-15T05:00:05.818Z,91.00
2017-11-15T05:02:33.367Z,91.10
2017-11-15T05:05:00.800Z,91.10
2017-11-15T05:07:28.221Z,91.10
2017-11-15T05:09:56.446Z,91.10
2017-11-15T05:12:23.875Z,91.00
2017-11-15T05:14:51.317Z,90.90
2017-11-15T05:17:19.550Z,91.00
2017-11-15T05:19:47.746Z,91.40
2017-11-15T05:22:15.186Z,91.40
2017-11-15T05:24:43.455Z,91.30
2017-11-15T05:27:10.917Z,91.30
2017-11-15T05:29:38.339Z,91.20
2017-11-15T05:32:05.765Z,91.30
2017-11-15T05:34:33.970Z,91.40
2017-11-15T05:37:01.402Z,91.40
2017-11-15T05:39:29.609Z,91.30
2017-11-15T05:41:57.046Z,91.20
2017-11-15T05:44:25.235Z,91.30
2017-11-15T05:46:52.719Z,91.30
2017-11-15T05:49:20.150Z,91.20
2017-11-15T05:51:47.591Z,91.20
2017-11-15T05:54:15.029Z,90.90
2017-11-15T05:56:43.224Z,91.40
2017-11-15T05:59:10.661Z,91.00
2017-11-15T06:01:38.885Z,91.10
2017-11-15T06:04:06.321Z,91.10
2017-11-15T06:06:33.757Z,91.40
2017-11-15T06:09:01.978Z,91.90
2017-11-15T06:11:29.428Z,91.90
2017-11-15T06:13:56.961Z,92.00
2017-11-15T06:16:25.144Z,92.10
2017-11-15T06:18:52.516Z,92.10
2017-11-15T06:21:19.970Z,92.00
2017-11-15T06:23:47.452Z,91.60
2017-11-15T06:26:14.917Z,91.70
2017-11-15T06:28:42.455Z,91.70
2017-11-15T06:31:09.790Z,91.80
2017-11-15T06:33:37.403Z,91.60
2017-11-15T06:36:04.729Z,91.60
2017-11-15T06:38:32.271Z,91.50
2017-11-15T06:40:59.646Z,91.60
2017-11-15T06:43:27.506Z,91.50
2017-11-15T06:45:54.942Z,91.50
2017-11-15T06:48:22.374Z,91.40
2017-11-15T06:50:49.882Z,91.50
2017-11-15T06:53:17.314Z,91.40
2017-11-15T06:55:44.736Z,91.40
2017-11-15T06:58:12.225Z,91.40
2017-11-15T07:00:39.666Z,91.40
2017-11-15T07:03:07.120Z,91.10
2017-11-15T07:05:34.541Z,91.30
2017-11-15T07:08:01.966Z,91.20
2017-11-15T07:10:29.409Z,90.90
2017-11-15T07:12:57.612Z,91.00
2017-11-15T07:15:25.130Z,91.00
2017-11-15T07:17:52.578Z,90.80
2017-11-15T07:20:20.034Z,90.90
2017-11-15T07:22:47.470Z,90.90
2017-11-15T07:25:14.906Z,90.80
2017-11-15T07:27:43.120Z,90.80
2017-11-15T07:30:10.550Z,90.70
2017-11-15T07:32:37.981Z,90.80
2017-11-15T07:35:05.422Z,90.70
2017-11-15T07:37:32.857Z,90.60
2017-11-15T07:40:00.405Z,90.60
2017-11-15T07:42:27.835Z,90.80
2017-11-15T07:44:55.294Z,90.80
2017-11-15T07:47:22.701Z,90.80
2017-11-15T07:49:50.137Z,90.60
2017-11-15T07:52:17.583Z,90.80
2017-11-15T07:54:45.015Z,90.80
2017-11-15T07:57:13.215Z,90.60
2017-11-15T07:59:40.697Z,90.60
2017-11-15T08:02:08.138Z,90.60
2017-11-15T08:04:35.622Z,90.60
2017-11-15T08:07:03.054Z,90.10
2017-11-15T08:09:30.494Z,90.40
2017-11-15T08:11:57.924Z,90.90
2017-11-15T08:14:26.140Z,90.90
2017-11-15T08:16:53.577Z,90.90
2017-11-15T08:19:21.071Z,90.80
2017-11-15T08:21:48.498Z,90.80
2017-11-15T08:24:15.995Z,90.60
2017-11-15T08:26:43.428Z,90.40
2017-11-15T08:29:10.870Z,90.30
2017-11-15T08:31:38.364Z,90.10
2017-11-15T08:34:05.786Z,90.10
2017-11-15T08:36:33.235Z,89.50
2017-11-15T08:39:00.662Z,88.70
2017-11-15T08:41:28.882Z,89.00
2017-11-15T08:43:56.322Z,88.20
2017-11-15T08:46:24.530Z,87.80
2017-11-15T08:48:51.970Z,87.80
2017-11-15T08:51:19.470Z,87.50
2017-11-15T08:53:46.913Z,87.40
2017-11-15T08:56:14.342Z,87.20
2017-11-15T08:58:41.767Z,86.70
2017-11-15T09:01:09.979Z,88.10
2017-11-15T09:03:37.409Z,87.90
2017-11-15T09:06:05.733Z,87.50
2017-11-15T09:08:33.198Z,87.30
2017-11-15T09:11:00.655Z,87.10
2017-11-15T09:13:28.102Z,86.50
2017-11-15T09:15:55.534Z,85.50
2017-11-15T09:18:22.974Z,86.00
2017-11-15T09:20:50.479Z,86.00
2017-11-15T09:23:17.919Z,85.90
2017-11-15T09:25:45.357Z,85.40
2017-11-15T09:28:12.793Z,85.40
2017-11-15T09:30:41.006Z,84.40
2017-11-15T09:33:08.434Z,84.30
2017-11-15T09:35:35.879Z,84.50
2017-11-15T09:38:04.090Z,84.60
2017-11-15T09:40:31.518Z,84.50
2017-11-15T09:42:59.731Z,83.50
2017-11-15T09:45:27.202Z,83.50
2017-11-15T09:47:54.633Z,82.10
2017-11-15T09:50:22.078Z,80.10
2017-11-15T09:52:49.577Z,77.40
2017-11-15T09:55:17.017Z,74.70
2017-11-15T09:57:44.440Z,71.80
2017-11-15T10:00:12.666Z,69.80
2017-11-15T10:02:40.103Z,69.70
2017-11-15T10:05:07.533Z,69.70
2017-11-15T10:07:36.054Z,70.70
2017-11-15T10:10:03.473Z,70.70
2017-11-15T10:12:31.694Z,70.50
2017-11-15T10:14:59.149Z,70.50
2017-11-15T10:17:26.578Z,70.40
2017-11-15T10:19:54.278Z,70.80
2017-11-15T10:22:21.715Z,69.90
2017-11-15T10:24:49.127Z,69.20
2017-11-15T10:27:16.566Z,66.40
2017-11-15T10:29:44.006Z,66.40
2017-11-15T10:32:11.766Z,65.30
2017-11-15T10:34:39.219Z,63.70
2017-11-15T10:37:06.659Z,63.20
2017-11-15T10:39:34.150Z,62.90
2017-11-15T10:42:01.581Z,63.00
2017-11-15T10:44:29.366Z,62.70
2017-11-15T10:46:56.798Z,60.70
2017-11-15T10:49:24.269Z,59.50
2017-11-15T10:51:51.716Z,57.90
2017-11-15T10:54:19.151Z,57.50
2017-11-15T10:56:46.959Z,57.10
2017-11-15T10:59:14.383Z,56.80
2017-11-15T11:01:41.807Z,57.00
2017-11-15T11:04:10.145Z,56.90
2017-11-15T11:06:37.584Z,56.80
2017-11-15T11:09:05.370Z,56.70
2017-11-15T11:11:32.808Z,56.70
2017-11-15T11:14:00.239Z,57.00
2017-11-15T11:16:27.683Z,56.60
2017-11-15T11:18:55.910Z,56.80
2017-11-15T11:21:23.674Z,56.80
2017-11-15T11:23:51.129Z,56.30
2017-11-15T11:26:18.542Z,54.50
2017-11-15T11:28:46.748Z,50.70
2017-11-15T11:31:14.186Z,50.50
2017-11-15T11:33:41.988Z,50.70
2017-11-15T11:36:09.442Z,51.00
2017-11-15T11:38:36.879Z,51.10
2017-11-15T11:41:04.354Z,50.80
2017-11-15T11:43:31.788Z,51.00
2017-11-15T11:45:59.218Z,51.80
2017-11-15T11:48:27.455Z,52.30
2017-11-15T11:50:54.902Z,52.20
2017-11-15T11:53:22.347Z,52.10
2017-11-15T11:55:49.804Z,51.60
2017-11-15T11:58:17.220Z,50.60
2017-11-15T12:00:45.455Z,48.00
2017-11-15T12:03:12.885Z,47.90
2017-11-15T12:05:40.367Z,47.30
2017-11-15T12:08:07.803Z,47.00
2017-11-15T12:10:35.246Z,46.10
2017-11-15T12:13:02.711Z,45.10
2017-11-15T12:15:30.130Z,44.80
2017-11-15T12:17:58.369Z,43.80
2017-11-15T12:20:25.794Z,43.70
2017-11-15T12:22:53.251Z,43.00
2017-11-15T12:25:21.050Z,41.70
2017-11-15T12:27:48.496Z,42.10
2017-11-15T12:30:15.953Z,41.90
2017-11-15T12:32:43.650Z,41.30
2017-11-15T12:35:11.080Z,40.50
2017-11-15T12:37:38.514Z,40.10
2017-11-15T12:40:06.307Z,40.40
2017-11-15T12:42:33.746Z,40.60
2017-11-15T12:45:01.183Z,39.90
2017-11-15T12:47:28.626Z,40.40
2017-11-15T12:49:56.833Z,41.00
2017-11-15T12:52:24.623Z,41.00
2017-11-15T12:54:52.049Z,40.80
2017-11-15T12:57:19.482Z,40.20
2017-11-15T12:59:48.019Z,40.10
2017-11-15T13:02:15.451Z,40.00
2017-11-15T13:04:42.884Z,40.60
2017-11-15T13:07:11.412Z,39.80
2017-11-15T13:09:38.849Z,39.70
2017-11-15T13:12:06.283Z,39.70
2017-11-15T13:14:33.724Z,40.30
2017-11-15T13:17:01.923Z,40.80
2017-11-15T13:19:29.643Z,40.70
2017-11-15T13:21:57.063Z,41.50
2017-11-15T13:24:24.498Z,42.90
2017-11-15T13:26:52.204Z,44.30
2017-11-15T13:29:19.638Z,45.50
2017-11-15T13:31:47.075Z,47.10
2017-11-15T13:34:14.515Z,48.80
2017-11-15T13:36:42.714Z,51.10
2017-11-15T13:39:10.510Z,51.00
2017-11-15T13:41:37.947Z,51.70
2017-11-15T13:44:05.377Z,52.60
2017-11-15T13:46:32.825Z,52.80
2017-11-15T13:49:01.030Z,52.70
2017-11-15T13:51:28.726Z,52.60
2017-11-15T13:53:56.193Z,53.00
2017-11-15T13:56:23.586Z,53.60
2017-11-15T13:58:51.785Z,53.40
2017-11-15T14:01:19.253Z,53.40
2017-11-15T14:03:46.928Z,53.40
2017-11-15T14:06:14.371Z,53.30
2017-11-15T14:08:41.791Z,53.10
2017-11-15T14:11:09.992Z,52.30
2017-11-15T14:13:37.469Z,52.30
2017-11-15T14:16:05.230Z,51.90
2017-11-15T14:18:32.663Z,51.50
2017-11-15T14:21:00.103Z,51.30
2017-11-15T14:23:28.315Z,51.50
2017-11-15T14:25:55.770Z,51.40
2017-11-15T14:28:23.199Z,52.00
2017-11-15T14:30:50.635Z,52.80
2017-11-15T14:33:19.278Z,54.10
2017-11-15T14:35:46.736Z,54.10
2017-11-15T14:38:14.158Z,54.60
2017-11-15T14:40:41.610Z,55.00
2017-11-15T14:43:09.853Z,56.80
2017-11-15T14:45:37.701Z,56.70
2017-11-15T14:48:05.153Z,57.50
2017-11-15T14:50:32.595Z,58.20
2017-11-15T14:53:00.058Z,58.70
2017-11-15T14:55:27.495Z,59.10
2017-11-15T14:57:55.194Z,59.60
2017-11-15T15:00:22.644Z,59.60
2017-11-15T15:02:50.105Z,59.90
2017-11-15T15:05:17.652Z,60.80
2017-11-15T15:07:45.124Z,61.40
2017-11-15T15:10:12.674Z,62.20
2017-11-15T15:12:40.104Z,64.10
2017-11-15T15:15:07.907Z,65.40
2017-11-15T15:17:35.448Z,67.00
2017-11-15T15:20:02.921Z,67.90
2017-11-15T15:22:30.371Z,69.00
2017-11-15T15:24:57.839Z,69.60
2017-11-15T15:27:25.299Z,71.00
2017-11-15T15:29:52.744Z,71.70
2017-11-15T15:32:20.510Z,72.20
2017-11-15T15:34:47.943Z,72.70
2017-11-15T15:37:15.365Z,73.20
2017-11-15T15:39:42.810Z,74.00
2017-11-15T15:42:11.010Z,75.20
2017-11-15T15:44:39.225Z,76.30
2017-11-15T15:47:06.681Z,76.20
2017-11-15T15:49:34.451Z,77.60
2017-11-15T15:52:01.879Z,78.00
2017-11-15T15:54:29.360Z,78.90
2017-11-15T15:56:56.809Z,79.70
2017-11-15T15:59:24.262Z,80.20
2017-11-15T16:01:51.703Z,80.80
2017-11-15T16:04:19.907Z,81.80
2017-11-15T16:06:47.612Z,81.70
2017-11-15T16:09:15.806Z,81.90
2017-11-15T16:11:44.018Z,83.00
2017-11-15T16:14:11.488Z,82.90
2017-11-15T16:16:38.941Z,83.10
2017-11-15T16:19:06.508Z,83.30
2017-11-15T16:21:33.954Z,83.40
2017-11-15T16:24:01.674Z,82.90
2017-11-15T16:26:29.874Z,82.40
2017-11-15T16:28:57.308Z,82.30
2017-11-15T16:31:24.757Z,82.40
2017-11-15T16:33:52.960Z,82.20
2017-11-15T16:36:20.411Z,82.10
2017-11-15T16:38:47.910Z,82.30
2017-11-15T16:41:15.618Z,82.30
2017-11-15T16:43:43.853Z,82.70
2017-11-15T16:46:11.292Z,82.70
2017-11-15T16:48:38.767Z,82.70
2017-11-15T16:51:06.262Z,82.90
2017-11-15T16:53:33.779Z,82.90
2017-11-15T16:56:01.426Z,82.70
2017-11-15T16:58:29.924Z,82.60
2017-11-15T17:00:57.383Z,82.50
2017-11-15T17:03:24.819Z,82.60
2017-11-15T17:05:52.274Z,82.50
2017-11-15T17:08:19.719Z,82.20
2017-11-15T17:10:47.170Z,82.20
2017-11-15T17:13:14.622Z,82.00
2017-11-15T17:15:42.440Z,81.80
2017-11-15T17:18:09.884Z,81.80
2017-11-15T17:20:37.315Z,81.80
2017-11-15T17:23:04.770Z,81.60
2017-11-15T17:25:32.262Z,81.70
2017-11-15T17:27:59.709Z,81.60
2017-11-15T17:30:27.169Z,81.70
2017-11-15T17:32:54.937Z,81.60
2017-11-15T17:35:22.379Z,81.70
2017-11-15T17:37:49.814Z,81.80
2017-11-15T17:40:17.313Z,81.80
2017-11-15T17:42:44.861Z,82.00
2017-11-15T17:45:12.630Z,81.80
2017-11-15T17:47:40.093Z,81.90
2017-11-15T17:50:07.531Z,81.90
2017-11-15T17:52:34.974Z,82.00
2017-11-15T17:55:03.249Z,82.20
2017-11-15T17:57:30.837Z,82.40
2017-11-15T17:59:58.257Z,82.30
2017-11-15T18:02:26.790Z,82.10
2017-11-15T18:04:54.226Z,82.10
2017-11-15T18:07:21.670Z,82.80
2017-11-15T18:09:49.113Z,82.00
2017-11-15T18:12:16.541Z,82.10
2017-11-15T18:14:44.880Z,82.10
2017-11-15T18:17:12.315Z,82.10
2017-11-15T18:19:40.109Z,82.10
2017-11-15T18:22:07.571Z,82.10
2017-11-15T18:24:35.019Z,82.00
2017-11-15T18:27:02.465Z,82.10
2017-11-15T18:29:29.901Z,82.30
2017-11-15T18:31:58.122Z,82.40
2017-11-15T18:34:25.567Z,82.40
2017-11-15T18:36:53.277Z,82.80
2017-11-15T18:39:21.514Z,82.90
2017-11-15T18:41:48.974Z,82.90
2017-11-15T18:44:16.425Z,82.90
2017-11-15T18:46:43.858Z,83.00
2017-11-15T18:49:11.310Z,83.10
2017-11-15T18:51:38.749Z,83.30
2017-11-15T18:54:07.288Z,83.50
2017-11-15T18:56:34.856Z,83.40
2017-11-15T18:59:02.294Z,83.50
2017-11-15T19:01:29.742Z,83.50
2017-11-15T19:03:57.250Z,83.70
2017-11-15T19:06:24.865Z,83.90
2017-11-15T19:08:52.330Z,84.00
2017-11-15T19:11:20.098Z,85.00
2017-11-15T19:13:47.553Z,84.50
2017-11-15T19:16:15.010Z,84.60
2017-11-15T19:18:42.450Z,84.80
2017-11-15T19:21:09.926Z,84.80
2017-11-15T19:23:37.356Z,84.80
2017-11-15T19:26:04.800Z,84.90
2017-11-15T19:28:33.330Z,84.80
2017-11-15T19:31:00.768Z,84.80
2017-11-15T19:33:28.195Z,84.90
2017-11-15T19:35:56.408Z,85.20
2017-11-15T19:38:23.863Z,85.00
2017-11-15T19:40:51.420Z,85.00
2017-11-15T19:43:18.845Z,85.80
2017-11-15T19:45:47.375Z,85.10
2017-11-15T19:48:14.833Z,85.00
2017-11-15T19:50:42.280Z,85.10
2017-11-15T19:53:09.730Z,85.20
2017-11-15T19:55:37.205Z,85.40
2017-11-15T19:58:04.762Z,85.50
2017-11-15T20:00:32.219Z,85.50
2017-11-15T20:02:59.988Z,85.50
2017-11-15T20:05:27.426Z,85.70
2017-11-15T20:07:54.862Z,85.80
2017-11-15T20:10:22.359Z,85.90
2017-11-15T20:12:49.787Z,85.80
2017-11-15T20:15:17.250Z,85.80
2017-11-15T20:17:44.693Z,85.90
2017-11-15T20:20:12.399Z,85.80
2017-11-15T20:22:39.842Z,85.90
2017-11-15T20:25:07.266Z,85.90
2017-11-15T20:27:34.713Z,86.00
2017-11-15T20:30:02.150Z,85.90
2017-11-15T20:32:30.378Z,86.70
2017-11-15T20:34:57.809Z,85.90
2017-11-15T20:37:25.519Z,85.90
2017-11-15T20:39:52.975Z,85.90
2017-11-15T20:42:20.431Z,85.90
2017-11-15T20:44:47.991Z,85.90
2017-11-15T20:47:15.438Z,86.10
2017-11-15T20:49:42.889Z,86.30
2017-11-15T20:52:10.355Z,86.40
2017-11-15T20:54:38.066Z,87.20
2017-11-15T20:57:06.297Z,86.60
2017-11-15T20:59:33.754Z,86.60
2017-11-15T21:02:01.202Z,86.60
2017-11-15T21:04:28.641Z,86.70
2017-11-15T21:06:56.089Z,86.70
2017-11-15T21:09:23.533Z,86.70
2017-11-15T21:11:52.075Z,86.80
2017-11-15T21:14:19.520Z,86.70
2017-11-15T21:16:46.990Z,86.80
2017-11-15T21:19:14.538Z,86.90
2017-11-15T21:21:41.977Z,86.90
2017-11-15T21:24:09.484Z,87.00
2017-11-15T21:26:36.919Z,87.00
2017-11-15T21:29:04.683Z,87.00
2017-11-15T21:31:32.119Z,86.80
2017-11-15T21:33:59.549Z,86.80
2017-11-15T21:36:27.016Z,86.80
2017-11-15T21:38:54.454Z,86.80
2017-11-15T21:41:22.796Z,86.90
2017-11-15T21:43:50.257Z,86.80
2017-11-15T21:46:18.014Z,87.00
2017-11-15T21:48:45.465Z,86.90
2017-11-15T21:51:13.008Z,86.90
2017-11-15T21:53:40.495Z,86.90
2017-11-15T21:56:07.925Z,86.80
2017-11-15T21:58:35.381Z,86.70
2017-11-15T22:01:02.817Z,86.70
2017-11-15T22:03:30.748Z,86.70
2017-11-15T22:05:58.213Z,86.70
2017-11-15T22:08:25.646Z,86.70
2017-11-15T22:10:53.922Z,86.80
2017-11-15T22:13:21.358Z,86.80
2017-11-15T22:15:48.830Z,86.90
2017-11-15T22:18:16.258Z,86.90
2017-11-15T22:20:44.046Z,87.40
2017-11-15T22:23:11.495Z,86.90
2017-11-15T22:25:38.971Z,86.90
2017-11-15T22:28:06.416Z,86.90
2017-11-15T22:30:33.846Z,86.80
2017-11-15T22:33:01.321Z,86.80
2017-11-15T22:35:28.734Z,86.80
2017-11-15T22:37:57.407Z,86.80
2017-11-15T22:40:24.821Z,86.70
2017-11-15T22:42:52.269Z,86.80
2017-11-15T22:45:19.706Z,86.90
2017-11-15T22:47:47.141Z,87.00
2017-11-15T22:50:14.589Z,87.10
2017-11-15T22:52:42.127Z,88.30
2017-11-15T22:55:09.894Z,87.60
2017-11-15T22:57:37.333Z,87.80
2017-11-15T23:00:04.770Z,87.90
2017-11-15T23:02:32.229Z,87.90
2017-11-15T23:04:59.721Z,88.20
2017-11-15T23:07:27.185Z,88.40
2017-11-15T23:09:54.630Z,88.50
2017-11-15T23:12:22.401Z,88.50
2017-11-15T23:14:49.839Z,88.60
2017-11-15T23:17:17.284Z,88.60
2017-11-15T23:19:44.730Z,88.60
2017-11-15T23:22:12.163Z,88.60
2017-11-15T23:24:39.694Z,88.60
2017-11-15T23:27:07.229Z,88.50
2017-11-15T23:29:35.015Z,89.30
2017-11-15T23:32:02.436Z,88.60
2017-11-15T23:34:29.859Z,88.50
2017-11-15T23:36:58.074Z,88.10
2017-11-15T23:39:25.514Z,88.00
2017-11-15T23:41:53.829Z,88.30
2017-11-15T23:44:21.287Z,88.20
2017-11-15T23:46:49.033Z,88.30
2017-11-15T23:49:16.513Z,88.30
2017-11-15T23:51:43.943Z,88.30
2017-11-15T23:54:11.426Z,88.30
2017-11-15T23:56:38.858Z,88.30
2017-11-15T23:59:06.309Z,88.30
